Time;durP1;ratioP1;P1;durP2;ratioP2;P2;SDS_P1;SDS_P2;PMS_P1;PMS_P2;Temp;Humidity;BMP_temperature;BMP_pressure;BME280_temperature;BME280_humidity;BME280_pressure;Samples;Min_cycle;Max_cycle;Signal;HPM_P1;HPM_P2
2023/04/15 00:00:37;;;;;;;3.53;1.77;;;9.40;99.90;;;;;;4998505;28;20539;-68
2023/04/15 00:03:04;;;;;;;2.23;1.83;;;9.30;99.90;;;;;;5004254;28;20460;-67
2023/04/15 00:05:30;;;;;;;4.33;1.87;;;9.40;99.90;;;;;;5004162;28;20308;-67
2023/04/15 00:07:57;;;;;;;6.13;2.53;;;9.30;99.90;;;;;;4985819;28;20455;-68
2023/04/15 00:10:24;;;;;;;3.23;2.20;;;9.30;99.90;;;;;;5004780;28;20468;-68
2023/04/15 00:12:50;;;;;;;2.40;2.20;;;9.30;99.90;;;;;;4996382;28;20460;-67
2023/04/15 00:15:16;;;;;;;2.77;1.90;;;9.20;99.90;;;;;;4996436;28;20467;-67
2023/04/15 00:17:42;;;;;;;3.13;1.83;;;9.10;99.90;;;;;;4998698;28;20548;-68
2023/04/15 00:20:08;;;;;;;1.53;1.43;;;9.10;99.90;;;;;;4999766;28;21101;-66
2023/04/15 00:22:33;;;;;;;2.40;1.67;;;9.10;99.90;;;;;;5000961;28;20221;-69
2023/04/15 00:24:59;;;;;;;1.60;1.50;;;9.10;99.90;;;;;;5003157;28;20455;-68
2023/04/15 00:27:25;;;;;;;2.60;2.17;;;9.00;99.90;;;;;;4987630;28;20219;-67
2023/04/15 00:29:50;;;;;;;1.93;1.70;;;9.00;99.90;;;;;;4998797;28;20237;-68
2023/04/15 00:32:16;;;;;;;1.90;1.47;;;9.00;99.90;;;;;;4995890;28;20224;-68
2023/04/15 00:34:44;;;;;;;1.40;1.30;;;8.90;99.90;;;;;;4986023;28;20740;-67
2023/04/15 00:37:10;;;;;;;2.83;1.23;;;8.90;99.90;;;;;;5003909;28;20220;-68
2023/04/15 00:39:36;;;;;;;1.80;1.53;;;8.90;99.90;;;;;;4984636;28;20491;-68
2023/04/15 00:42:03;;;;;;;3.60;1.63;;;8.80;99.90;;;;;;4987884;28;20218;-69
2023/04/15 00:44:29;;;;;;;4.33;2.23;;;8.80;99.90;;;;;;5003998;28;20311;-68
2023/04/15 00:46:56;;;;;;;2.33;2.13;;;8.80;99.90;;;;;;4999182;28;20862;-68
2023/04/15 00:49:22;;;;;;;2.47;1.40;;;8.80;99.90;;;;;;5002832;28;20236;-68
2023/04/15 00:51:48;;;;;;;1.70;1.60;;;8.80;99.90;;;;;;4988872;28;20462;-68
2023/04/15 00:54:15;;;;;;;3.47;1.77;;;8.80;99.90;;;;;;4998466;28;20479;-68
2023/04/15 00:56:41;;;;;;;4.03;1.30;;;8.70;99.90;;;;;;5000329;28;20278;-68
2023/04/15 00:59:08;;;;;;;1.43;1.33;;;8.70;99.90;;;;;;5000233;28;20464;-66
2023/04/15 01:01:35;;;;;;;2.10;1.37;;;8.60;99.90;;;;;;4999283;28;20489;-68
2023/04/15 01:04:02;;;;;;;1.77;1.37;;;8.60;99.90;;;;;;5003486;28;20974;-68
2023/04/15 01:06:29;;;;;;;2.20;1.67;;;8.60;99.90;;;;;;5001081;28;20484;-68
2023/04/15 01:08:56;;;;;;;2.97;1.07;;;8.60;99.90;;;;;;4999346;28;21005;-68
2023/04/15 01:11:23;;;;;;;1.50;1.40;;;8.50;99.90;;;;;;5003229;28;20475;-69
2023/04/15 01:13:51;;;;;;;1.77;1.30;;;8.50;99.90;;;;;;5000159;28;20491;-67
2023/04/15 01:16:18;;;;;;;1.70;1.20;;;8.50;99.90;;;;;;5002546;28;20472;-68
2023/04/15 01:18:43;;;;;;;1.53;1.43;;;8.40;99.90;;;;;;4998940;28;20472;-68
2023/04/15 01:21:09;;;;;;;1.87;1.70;;;8.40;99.90;;;;;;4999669;28;20630;-68
2023/04/15 01:23:39;;;;;;;4.90;1.80;;;8.40;99.90;;;;;;4996050;28;20240;-69
2023/04/15 01:26:07;;;;;;;1.87;1.60;;;8.30;99.90;;;;;;5002380;28;20221;-68
2023/04/15 01:28:34;;;;;;;2.17;1.43;;;8.30;99.90;;;;;;5000275;28;20467;-68
2023/04/15 01:31:06;;;;;;;1.20;1.10;;;8.30;99.90;;;;;;5002869;28;20479;-68
2023/04/15 01:33:35;;;;;;;1.27;1.17;;;8.30;99.90;;;;;;4992277;28;20479;-69
2023/04/15 01:36:01;;;;;;;2.10;1.30;;;8.20;99.90;;;;;;5003142;28;20456;-68
2023/04/15 01:38:28;;;;;;;1.47;1.37;;;8.20;99.90;;;;;;4986213;28;20563;-68
2023/04/15 01:40:54;;;;;;;1.37;1.23;;;8.20;99.90;;;;;;4998991;28;20223;-68
2023/04/15 01:43:19;;;;;;;1.80;1.53;;;8.20;99.90;;;;;;5003411;28;20479;-69
2023/04/15 01:45:45;;;;;;;2.00;1.30;;;8.10;99.90;;;;;;4977852;28;20224;-69
2023/04/15 01:48:11;;;;;;;1.60;1.10;;;8.10;99.90;;;;;;4986658;28;20379;-68
2023/04/15 01:50:37;;;;;;;2.63;1.43;;;8.10;99.90;;;;;;4999083;28;20463;-69
2023/04/15 01:53:03;;;;;;;5.23;1.50;;;8.10;99.90;;;;;;4983506;28;20651;-69
2023/04/15 01:55:29;;;;;;;1.97;1.27;;;8.10;99.90;;;;;;5003352;28;20236;-68
2023/04/15 01:57:55;;;;;;;1.47;1.20;;;8.10;99.90;;;;;;4995298;28;20543;-69
2023/04/15 02:00:22;;;;;;;2.63;1.10;;;8.10;99.90;;;;;;5001517;28;20460;-69
2023/04/15 02:02:48;;;;;;;2.00;1.30;;;8.10;99.90;;;;;;4998478;28;20456;-69
2023/04/15 02:05:14;;;;;;;1.20;1.10;;;8.10;99.90;;;;;;5004228;28;20531;-68
2023/04/15 02:07:46;;;;;;;1.60;1.30;;;8.10;99.90;;;;;;4996217;28;20491;-67
2023/04/15 02:10:15;;;;;;;2.97;1.20;;;8.10;99.90;;;;;;4988964;28;20511;-68
2023/04/15 02:12:41;;;;;;;1.27;1.17;;;8.10;99.90;;;;;;4993942;28;20210;-67
2023/04/15 02:15:09;;;;;;;2.00;1.23;;;8.10;99.90;;;;;;4997533;28;20940;-69
2023/04/15 02:17:36;;;;;;;1.80;1.30;;;8.00;99.90;;;;;;4998404;28;20473;-69
2023/04/15 02:20:04;;;;;;;5.90;1.97;;;8.00;99.90;;;;;;4984886;28;20539;-68
2023/04/15 02:22:30;;;;;;;1.33;1.23;;;7.90;99.90;;;;;;4999335;28;20468;-68
2023/04/15 02:24:56;;;;;;;1.47;1.37;;;7.90;99.90;;;;;;5003766;28;20451;-68
2023/04/15 02:27:22;;;;;;;2.30;1.37;;;7.90;99.90;;;;;;5003835;28;20224;-68
2023/04/15 02:29:52;;;;;;;2.00;1.50;;;7.80;99.90;;;;;;4979787;28;20241;-68
2023/04/15 02:32:17;;;;;;;4.33;2.27;;;7.80;99.90;;;;;;4994969;28;20460;-67
2023/04/15 02:34:43;;;;;;;3.50;1.60;;;7.80;99.90;;;;;;4999748;28;20923;-69
2023/04/15 02:37:13;;;;;;;1.47;1.30;;;7.70;99.90;;;;;;5002312;28;20227;-68
2023/04/15 02:39:38;;;;;;;3.10;1.63;;;7.70;99.90;;;;;;4999220;28;20228;-68
2023/04/15 02:42:07;;;;;;;2.07;1.60;;;7.70;99.90;;;;;;5001865;28;20502;-68
2023/04/15 02:44:35;;;;;;;1.80;1.40;;;7.60;99.90;;;;;;4993498;28;20226;-67
2023/04/15 02:47:03;;;;;;;3.90;1.43;;;7.60;99.90;;;;;;5001436;28;20474;-67
2023/04/15 02:49:29;;;;;;;1.47;1.30;;;7.50;99.90;;;;;;4984799;28;20472;-69
2023/04/15 02:51:57;;;;;;;3.53;1.80;;;7.40;99.90;;;;;;4991306;28;20455;-68
2023/04/15 02:54:23;;;;;;;2.17;1.50;;;7.50;99.90;;;;;;4999535;28;20475;-69
2023/04/15 02:56:49;;;;;;;1.87;1.77;;;7.50;99.90;;;;;;5009874;28;20473;-68
2023/04/15 02:59:15;;;;;;;4.30;1.57;;;7.50;99.90;;;;;;5002067;28;20471;-69
2023/04/15 03:01:41;;;;;;;1.67;1.27;;;7.50;99.90;;;;;;4994141;28;20460;-68
2023/04/15 03:04:07;;;;;;;1.47;1.00;;;7.50;99.90;;;;;;5000990;28;20216;-67
2023/04/15 03:06:34;;;;;;;2.83;1.40;;;7.50;99.90;;;;;;4999375;28;20550;-68
2023/04/15 03:09:02;;;;;;;2.00;1.63;;;7.40;99.90;;;;;;5001635;28;20491;-69
2023/04/15 03:11:32;;;;;;;1.70;1.60;;;7.40;99.90;;;;;;4997347;28;20474;-72
2023/04/15 03:13:58;;;;;;;3.10;1.20;;;7.30;99.90;;;;;;5020429;28;20472;-68
2023/04/15 03:16:29;;;;;;;2.60;1.27;;;7.30;99.90;;;;;;5004141;28;20957;-68
2023/04/15 03:18:56;;;;;;;2.40;1.30;;;7.20;99.90;;;;;;5000273;28;20457;-68
2023/04/15 03:21:23;;;;;;;1.47;1.20;;;7.30;99.90;;;;;;4985517;28;20826;-69
2023/04/15 03:23:49;;;;;;;2.20;1.40;;;7.20;99.90;;;;;;5002078;28;20471;-68
2023/04/15 03:26:28;;;;;;;2.20;1.40;;;7.20;99.90;;;;;;5004840;28;20534;-68
2023/04/15 03:28:56;;;;;;;2.13;1.20;;;7.20;99.90;;;;;;5000353;28;20308;-68
2023/04/15 03:31:22;;;;;;;1.37;1.10;;;7.20;99.90;;;;;;4994170;28;20471;-68
2023/04/15 03:33:48;;;;;;;1.50;1.23;;;7.20;99.90;;;;;;5001154;28;20904;-68
2023/04/15 03:36:14;;;;;;;2.07;1.87;;;7.20;99.90;;;;;;5004050;28;20218;-68
2023/04/15 03:38:40;;;;;;;1.40;1.13;;;7.20;99.90;;;;;;4997930;28;20227;-67
2023/04/15 03:41:06;;;;;;;1.00;1.00;;;7.10;99.90;;;;;;5006516;28;20452;-69
2023/04/15 03:43:32;;;;;;;1.43;1.00;;;7.10;99.90;;;;;;4990863;28;20220;-74
2023/04/15 03:45:57;;;;;;;1.80;1.30;;;7.10;99.90;;;;;;5003940;28;20456;-68
2023/04/15 03:48:23;;;;;;;2.13;1.57;;;7.00;99.90;;;;;;5005837;28;20220;-68
2023/04/15 03:50:49;;;;;;;1.80;1.33;;;7.00;99.90;;;;;;5002692;28;20228;-68
2023/04/15 03:53:15;;;;;;;2.80;1.60;;;7.00;99.90;;;;;;5004903;28;20229;-67
2023/04/15 03:55:40;;;;;;;5.47;1.43;;;7.00;99.90;;;;;;4998262;28;20218;-68
2023/04/15 03:58:11;;;;;;;1.20;1.07;;;7.00;99.90;;;;;;5003402;28;20466;-68
2023/04/15 04:00:38;;;;;;;1.90;1.50;;;7.00;99.90;;;;;;4985454;28;20208;-69
2023/04/15 04:03:04;;;;;;;1.33;1.23;;;6.90;99.90;;;;;;5006645;28;20452;-67
2023/04/15 04:05:29;;;;;;;2.50;1.97;;;6.90;99.90;;;;;;4998880;28;21077;-68
2023/04/15 04:07:55;;;;;;;1.37;1.27;;;6.90;99.90;;;;;;4996482;28;20479;-68
2023/04/15 04:10:21;;;;;;;3.03;1.80;;;6.90;99.90;;;;;;5000547;28;20351;-68
2023/04/15 04:12:47;;;;;;;4.20;1.23;;;6.90;99.90;;;;;;4998851;28;20217;-68
2023/04/15 04:15:12;;;;;;;1.87;1.60;;;6.80;99.90;;;;;;4997105;28;20310;-68
2023/04/15 04:17:38;;;;;;;1.30;1.07;;;6.80;99.90;;;;;;5000263;28;20259;-68
2023/04/15 04:20:04;;;;;;;1.93;1.10;;;6.80;99.90;;;;;;5003100;28;20227;-68
2023/04/15 04:22:30;;;;;;;2.40;1.40;;;6.90;99.90;;;;;;5002080;28;20213;-68
2023/04/15 04:24:58;;;;;;;3.80;1.80;;;6.80;99.90;;;;;;4993810;28;20536;-70
2023/04/15 04:27:24;;;;;;;2.60;1.80;;;6.80;99.90;;;;;;5002475;28;20300;-68
2023/04/15 04:29:50;;;;;;;2.30;1.70;;;6.80;99.90;;;;;;4999387;28;20460;-68
2023/04/15 04:32:16;;;;;;;1.20;1.07;;;6.70;99.90;;;;;;5003204;28;20852;-68
2023/04/15 04:34:41;;;;;;;1.60;1.50;;;6.70;99.90;;;;;;5000596;28;20217;-68
2023/04/15 04:37:07;;;;;;;7.10;1.73;;;6.70;99.90;;;;;;5004535;28;20225;-68
2023/04/15 04:39:33;;;;;;;1.30;1.20;;;6.70;99.90;;;;;;5000007;28;20315;-68
2023/04/15 04:41:58;;;;;;;2.97;1.37;;;6.60;99.90;;;;;;5002541;28;20263;-69
2023/04/15 04:44:24;;;;;;;1.77;1.67;;;6.60;99.90;;;;;;5004720;28;20510;-69
2023/04/15 04:46:49;;;;;;;5.90;1.70;;;6.60;99.90;;;;;;4983199;28;20335;-67
2023/04/15 04:49:15;;;;;;;2.93;2.10;;;6.50;99.90;;;;;;5003817;28;20221;-69
2023/04/15 04:51:41;;;;;;;2.57;1.87;;;6.40;99.90;;;;;;4982720;28;20231;-67
2023/04/15 04:54:06;;;;;;;9.10;2.53;;;6.40;99.90;;;;;;5008662;28;20610;-68
2023/04/15 04:56:33;;;;;;;4.10;1.90;;;6.50;99.90;;;;;;5005874;28;20720;-76
2023/04/15 04:58:59;;;;;;;1.80;1.70;;;6.50;99.90;;;;;;5007451;28;20231;-68
2023/04/15 05:01:26;;;;;;;4.20;2.10;;;6.50;99.90;;;;;;5008046;28;20473;-68
2023/04/15 05:03:52;;;;;;;4.57;2.20;;;6.50;99.90;;;;;;4972053;28;1072632;-68
2023/04/15 05:06:17;;;;;;;3.20;2.03;;;6.50;99.90;;;;;;5009971;28;20255;-67
2023/04/15 05:08:45;;;;;;;3.37;2.10;;;6.50;99.90;;;;;;4992284;28;20247;-67
2023/04/15 05:11:11;;;;;;;3.97;1.73;;;6.50;99.90;;;;;;5010517;28;20217;-69
2023/04/15 05:13:37;;;;;;;1.67;1.50;;;6.40;99.90;;;;;;5009038;28;20521;-68
2023/04/15 05:16:05;;;;;;;1.90;1.80;;;6.40;99.90;;;;;;5001692;28;20535;-68
2023/04/15 05:18:30;;;;;;;2.23;1.80;;;6.40;99.90;;;;;;5010552;28;20306;-68
2023/04/15 05:20:57;;;;;;;1.70;1.40;;;6.40;99.90;;;;;;4992237;28;20476;-68
2023/04/15 05:23:22;;;;;;;2.90;2.17;;;6.40;99.90;;;;;;5008965;28;20243;-68
2023/04/15 05:25:48;;;;;;;3.00;2.00;;;6.40;99.90;;;;;;5003388;28;20485;-68
2023/04/15 05:28:14;;;;;;;2.23;1.80;;;6.40;99.90;;;;;;5008372;28;20634;-67
2023/04/15 05:30:40;;;;;;;3.50;2.17;;;6.40;99.90;;;;;;5005056;28;20231;-66
2023/04/15 05:33:06;;;;;;;10.43;2.27;;;6.40;99.90;;;;;;5004261;28;20459;-67
2023/04/15 05:35:31;;;;;;;2.50;2.30;;;6.50;99.90;;;;;;5008143;28;20455;-67
2023/04/15 05:37:57;;;;;;;3.33;2.10;;;6.50;99.90;;;;;;4986736;28;20327;-67
2023/04/15 05:40:23;;;;;;;1.80;1.70;;;6.50;99.90;;;;;;5010231;28;20212;-67
2023/04/15 05:42:48;;;;;;;3.43;1.70;;;6.60;99.90;;;;;;5009990;28;20220;-68
2023/04/15 05:45:14;;;;;;;6.37;2.53;;;6.60;99.90;;;;;;5006268;28;20711;-68
2023/04/15 05:47:40;;;;;;;4.60;2.40;;;6.60;99.90;;;;;;5007335;28;20694;-66
2023/04/15 05:50:06;;;;;;;2.63;2.00;;;6.60;99.90;;;;;;5008470;28;20227;-68
2023/04/15 05:52:31;;;;;;;8.53;2.63;;;6.70;99.90;;;;;;5004846;28;20216;-66
2023/04/15 05:54:57;;;;;;;4.90;2.70;;;6.70;99.90;;;;;;5007442;28;20462;-67
2023/04/15 05:57:23;;;;;;;2.77;2.20;;;6.70;99.90;;;;;;5008827;28;20221;-66
2023/04/15 05:59:51;;;;;;;3.97;2.57;;;6.80;99.90;;;;;;5005508;28;20239;-68
2023/04/15 06:02:17;;;;;;;3.00;2.70;;;6.80;99.90;;;;;;5003944;28;20769;-67
2023/04/15 06:04:42;;;;;;;2.57;1.97;;;6.70;99.90;;;;;;4999525;28;20554;-67
2023/04/15 06:07:08;;;;;;;6.90;2.40;;;6.60;99.90;;;;;;4992022;28;20629;-68
2023/04/15 06:09:35;;;;;;;3.10;2.50;;;6.60;99.90;;;;;;4997674;28;20220;-68
2023/04/15 06:12:01;;;;;;;4.13;2.20;;;6.70;99.90;;;;;;5007146;28;20459;-68
2023/04/15 06:14:26;;;;;;;2.37;2.17;;;6.70;99.90;;;;;;5000123;28;20483;-69
2023/04/15 06:16:52;;;;;;;4.57;2.80;;;6.80;99.90;;;;;;5008024;28;20475;-68
2023/04/15 06:19:18;;;;;;;3.93;2.17;;;6.80;99.90;;;;;;5008546;28;20575;-68
2023/04/15 06:21:44;;;;;;;3.57;2.13;;;6.90;99.90;;;;;;5007779;28;20240;-67
2023/04/15 06:24:11;;;;;;;2.90;2.40;;;7.00;99.90;;;;;;5008087;28;20239;-68
2023/04/15 06:26:36;;;;;;;2.53;2.10;;;7.00;99.90;;;;;;5006934;28;20231;-68
2023/04/15 06:29:02;;;;;;;2.83;1.93;;;6.90;99.90;;;;;;5008191;28;20480;-68
2023/04/15 06:31:28;;;;;;;2.80;2.27;;;7.00;99.90;;;;;;5003773;28;20275;-68
2023/04/15 06:33:54;;;;;;;5.33;2.03;;;7.00;99.90;;;;;;5002945;28;20329;-68
2023/04/15 06:36:20;;;;;;;7.00;2.73;;;7.20;99.90;;;;;;4999775;28;20501;-69
2023/04/15 06:38:46;;;;;;;4.63;2.30;;;7.20;99.90;;;;;;4978339;28;20257;-69
2023/04/15 06:41:12;;;;;;;2.03;1.87;;;7.30;99.90;;;;;;4995583;28;20225;-69
2023/04/15 06:43:38;;;;;;;2.37;2.17;;;7.30;99.90;;;;;;4999426;28;20213;-68
2023/04/15 06:46:04;;;;;;;2.63;2.40;;;7.40;99.90;;;;;;5002394;28;20270;-68
2023/04/15 06:48:30;;;;;;;2.67;2.47;;;7.40;99.90;;;;;;5003662;28;20471;-68
2023/04/15 06:50:57;;;;;;;2.63;2.20;;;7.40;99.90;;;;;;4998528;28;20460;-68
2023/04/15 06:53:26;;;;;;;5.43;2.60;;;7.50;99.90;;;;;;4998526;28;20491;-68
2023/04/15 06:55:52;;;;;;;6.43;2.77;;;7.50;99.90;;;;;;4996829;28;20471;-68
2023/04/15 06:58:18;;;;;;;3.57;2.50;;;7.50;99.90;;;;;;4999395;28;20490;-68
2023/04/15 07:00:44;;;;;;;4.13;2.80;;;7.50;99.90;;;;;;5003486;28;20296;-68
2023/04/15 07:03:11;;;;;;;3.47;2.90;;;7.60;99.90;;;;;;5000914;28;20695;-69
2023/04/15 07:05:37;;;;;;;3.70;2.93;;;7.60;99.90;;;;;;4998153;28;20255;-69
2023/04/15 07:08:04;;;;;;;2.43;1.97;;;7.60;99.90;;;;;;5001233;28;20965;-68
2023/04/15 07:10:29;;;;;;;4.90;2.70;;;7.60;99.90;;;;;;5002255;28;20476;-68
2023/04/15 07:12:56;;;;;;;4.50;2.70;;;7.60;99.90;;;;;;4999931;28;20463;-68
2023/04/15 07:15:22;;;;;;;5.73;2.73;;;7.70;99.90;;;;;;5003254;28;20212;-68
2023/04/15 07:17:48;;;;;;;5.53;3.00;;;7.80;99.90;;;;;;4994860;28;20529;-68
2023/04/15 07:20:14;;;;;;;4.43;3.10;;;7.80;99.90;;;;;;5005889;28;20547;-67
2023/04/15 07:22:39;;;;;;;3.70;2.57;;;7.90;99.90;;;;;;5004936;28;20935;-69
2023/04/15 07:25:06;;;;;;;3.10;2.40;;;8.00;99.90;;;;;;5007080;28;20249;-68
2023/04/15 07:27:32;;;;;;;4.60;2.67;;;8.00;99.90;;;;;;5001038;28;20295;-68
2023/04/15 07:29:58;;;;;;;3.20;2.30;;;8.10;99.90;;;;;;4990920;28;20537;-69
2023/04/15 07:32:23;;;;;;;4.07;2.20;;;8.10;99.90;;;;;;5007086;28;20267;-68
2023/04/15 07:34:49;;;;;;;3.60;2.73;;;8.10;99.90;;;;;;5002909;28;20268;-68
2023/04/15 07:37:15;;;;;;;3.50;2.37;;;8.20;99.90;;;;;;5006782;28;20302;-69
2023/04/15 07:39:41;;;;;;;2.97;2.03;;;8.20;99.90;;;;;;4999011;28;20229;-69
2023/04/15 07:42:07;;;;;;;3.00;2.30;;;8.30;99.90;;;;;;5007270;28;20274;-69
2023/04/15 07:44:33;;;;;;;3.20;2.00;;;8.30;99.90;;;;;;5006744;28;20444;-68
2023/04/15 07:46:59;;;;;;;2.73;1.97;;;8.30;99.90;;;;;;4989366;28;21040;-69
2023/04/15 07:49:25;;;;;;;3.23;2.00;;;8.30;99.90;;;;;;5006866;28;20258;-68
2023/04/15 07:51:50;;;;;;;9.97;2.50;;;8.40;99.90;;;;;;5006207;28;20468;-68
2023/04/15 07:54:16;;;;;;;5.73;1.87;;;8.50;99.90;;;;;;5001113;28;20224;-68
2023/04/15 07:56:42;;;;;;;3.40;2.40;;;8.60;99.90;;;;;;5005694;28;20271;-68
2023/04/15 07:59:08;;;;;;;4.27;2.77;;;8.60;99.90;;;;;;5011881;28;20251;-69
2023/04/15 08:01:35;;;;;;;1.77;1.60;;;8.70;99.90;;;;;;5006538;28;20225;-70
2023/04/15 08:04:01;;;;;;;2.30;2.10;;;8.80;99.90;;;;;;5009499;28;20464;-68
2023/04/15 08:06:27;;;;;;;4.90;2.30;;;8.80;99.90;;;;;;5010384;28;20515;-70
2023/04/15 08:08:54;;;;;;;1.67;1.57;;;8.90;99.90;;;;;;5003963;28;20472;-69
2023/04/15 08:11:20;;;;;;;2.87;2.67;;;8.90;99.90;;;;;;5006572;28;20472;-71
2023/04/15 08:13:46;;;;;;;3.90;2.40;;;9.00;99.90;;;;;;5005692;28;20578;-69
2023/04/15 08:16:21;;;;;;;6.90;2.40;;;9.10;99.90;;;;;;5009381;28;20595;-68
2023/04/15 08:18:48;;;;;;;5.70;2.60;;;9.30;99.90;;;;;;5009295;28;20547;-69
2023/04/15 08:21:14;;;;;;;3.03;2.40;;;9.40;99.90;;;;;;5005565;28;20457;-67
2023/04/15 08:23:40;;;;;;;4.20;2.50;;;9.50;99.90;;;;;;5007459;28;20457;-68
2023/04/15 08:26:07;;;;;;;8.87;3.20;;;9.80;99.90;;;;;;5010165;28;20547;-68
2023/04/15 08:28:33;;;;;;;2.80;1.97;;;9.90;99.90;;;;;;5013591;28;20246;-69
2023/04/15 08:30:59;;;;;;;3.50;2.50;;;10.10;99.90;;;;;;4992728;28;20989;-70
2023/04/15 08:33:24;;;;;;;2.97;2.67;;;10.20;99.90;;;;;;4994115;28;20319;-70
2023/04/15 08:35:50;;;;;;;3.10;2.23;;;10.30;99.90;;;;;;5009741;28;20225;-69
2023/04/15 08:38:16;;;;;;;4.57;2.70;;;10.40;99.90;;;;;;4994653;28;20702;-69
2023/04/15 08:40:44;;;;;;;5.20;2.20;;;10.40;99.90;;;;;;5009557;28;20214;-69
2023/04/15 08:43:14;;;;;;;3.93;2.40;;;10.50;99.90;;;;;;5010749;28;20449;-69
2023/04/15 08:45:40;;;;;;;2.50;2.30;;;10.60;99.90;;;;;;5009097;28;20472;-67
2023/04/15 08:48:08;;;;;;;3.63;2.27;;;10.70;99.90;;;;;;5009822;28;20457;-69
2023/04/15 08:50:34;;;;;;;3.23;2.97;;;10.70;99.90;;;;;;4996177;28;20557;-69
2023/04/15 08:52:59;;;;;;;3.80;3.00;;;10.80;99.90;;;;;;5004437;28;20535;-69
2023/04/15 08:55:32;;;;;;;3.10;2.13;;;10.90;99.90;;;;;;5005863;28;20415;-69
2023/04/15 08:57:58;;;;;;;5.60;2.30;;;11.00;99.90;;;;;;4996841;28;20238;-70
2023/04/15 09:00:24;;;;;;;6.17;2.50;;;11.00;99.90;;;;;;5009811;28;20480;-69
2023/04/15 09:02:51;;;;;;;3.60;2.73;;;11.10;99.90;;;;;;4992370;28;20848;-69
2023/04/15 09:05:16;;;;;;;3.20;2.03;;;11.20;99.90;;;;;;5004329;28;20476;-69
2023/04/15 09:07:42;;;;;;;4.63;2.70;;;11.30;99.90;;;;;;5006610;28;20468;-69
2023/04/15 09:10:09;;;;;;;2.80;2.33;;;11.40;99.90;;;;;;5008173;28;20214;-69
2023/04/15 09:12:35;;;;;;;3.40;3.10;;;11.50;99.90;;;;;;4984922;28;20466;-70
2023/04/15 09:15:02;;;;;;;4.00;3.10;;;11.80;99.90;;;;;;5007746;28;20491;-69
2023/04/15 09:17:32;;;;;;;3.10;2.80;;;11.90;99.90;;;;;;5004757;28;20565;-69
2023/04/15 09:20:12;;;;;;;3.17;2.30;;;12.10;99.90;;;;;;5005830;28;20882;-70
2023/04/15 09:22:38;;;;;;;3.57;2.40;;;12.20;99.90;;;;;;5010814;28;20608;-69
2023/04/15 09:25:28;;;;;;;4.60;2.90;;;12.40;99.90;;;;;;5010483;28;20445;-70
2023/04/15 09:27:59;;;;;;;2.57;2.37;;;12.50;99.90;;;;;;5010088;28;20462;-68
2023/04/15 09:30:26;;;;;;;4.20;2.47;;;12.50;99.90;;;;;;5009147;28;20888;-70
2023/04/15 09:32:52;;;;;;;3.67;2.50;;;12.40;99.90;;;;;;5003528;28;20543;-69
2023/04/15 09:35:19;;;;;;;6.87;2.90;;;12.40;99.90;;;;;;5002467;28;20484;-69
2023/04/15 09:37:45;;;;;;;4.47;3.27;;;12.40;99.90;;;;;;4986809;28;20465;-70
2023/04/15 09:40:11;;;;;;;3.83;3.07;;;12.60;99.90;;;;;;5008632;28;20476;-68
2023/04/15 09:42:56;;;;;;;15.67;4.00;;;12.70;99.90;;;;;;5008910;28;20268;-69
2023/04/15 09:45:23;;;;;;;3.23;2.60;;;12.40;99.90;;;;;;5005045;28;20460;-69
2023/04/15 09:47:51;;;;;;;3.33;2.53;;;12.40;99.90;;;;;;5007135;28;21009;-68
2023/04/15 09:50:18;;;;;;;3.90;2.57;;;12.50;99.90;;;;;;5006812;28;20473;-68
2023/04/15 09:52:44;;;;;;;4.83;2.73;;;12.50;99.90;;;;;;5001784;28;20464;-68
2023/04/15 09:55:11;;;;;;;4.40;2.93;;;12.50;99.90;;;;;;5007693;28;20473;-69
2023/04/15 09:57:40;;;;;;;5.07;3.60;;;12.60;99.90;;;;;;5007725;28;20214;-68
2023/04/15 10:00:07;;;;;;;4.90;2.90;;;12.80;99.90;;;;;;5009304;28;20465;-68
2023/04/15 10:02:35;;;;;;;2.80;2.00;;;12.90;99.90;;;;;;5010099;28;20503;-68
2023/04/15 10:05:02;;;;;;;3.83;2.70;;;12.70;99.90;;;;;;5006388;28;20544;-68
2023/04/15 10:07:28;;;;;;;5.23;2.30;;;13.00;99.90;;;;;;5009571;28;20467;-71
2023/04/15 10:09:55;;;;;;;3.53;2.13;;;12.70;99.90;;;;;;5000018;28;20469;-69
2023/04/15 10:12:21;;;;;;;2.97;1.93;;;12.80;99.90;;;;;;4988907;28;20520;-68
2023/04/15 10:14:55;;;;;;;2.50;1.90;;;13.00;99.90;;;;;;5007764;28;20512;-69
2023/04/15 10:17:22;;;;;;;3.70;2.33;;;13.10;99.90;;;;;;5007744;28;20518;-69
2023/04/15 10:19:48;;;;;;;3.90;2.53;;;12.90;99.90;;;;;;4989013;28;20470;-67
2023/04/15 10:22:15;;;;;;;3.20;2.10;;;12.80;99.90;;;;;;5005531;28;20464;-67
2023/04/15 10:24:42;;;;;;;2.13;1.77;;;13.00;99.90;;;;;;5000670;28;20998;-69
2023/04/15 10:27:08;;;;;;;2.90;1.87;;;13.10;99.90;;;;;;4998835;28;20514;-68
2023/04/15 10:29:37;;;;;;;4.93;2.10;;;12.90;99.90;;;;;;4979158;28;20480;-71
2023/04/15 10:32:04;;;;;;;3.80;2.27;;;12.90;99.90;;;;;;4986883;28;20451;-70
2023/04/15 10:34:31;;;;;;;3.80;2.30;;;13.00;99.90;;;;;;5007228;28;20505;-70
2023/04/15 10:37:03;;;;;;;4.37;2.50;;;12.90;99.90;;;;;;5006379;28;20464;-71
2023/04/15 10:39:32;;;;;;;2.63;1.83;;;12.90;99.90;;;;;;4994735;28;20464;-70
2023/04/15 10:42:30;;;;;;;3.27;2.00;;;12.90;99.90;;;;;;4990176;28;20771;-70
2023/04/15 10:44:56;;;;;;;3.17;2.03;;;12.80;99.90;;;;;;5006432;28;20517;-70
2023/04/15 10:47:21;;;;;;;6.33;2.37;;;13.00;99.90;;;;;;5002767;28;20505;-70
2023/04/15 10:49:59;;;;;;;4.00;2.60;;;13.20;99.90;;;;;;4986552;28;20972;-70
2023/04/15 10:52:26;;;;;;;3.07;2.17;;;13.20;99.80;;;;;;4998831;28;20210;-70
2023/04/15 10:55:21;;;;;;;3.20;2.07;;;13.10;99.60;;;;;;5004620;28;20480;-71
2023/04/15 10:57:54;;;;;;;3.43;1.70;;;13.20;99.90;;;;;;5002290;28;20457;-70
2023/04/15 11:00:23;;;;;;;1.70;1.53;;;13.20;99.50;;;;;;4988424;28;20461;-70
2023/04/15 11:03:06;;;;;;;1.67;1.57;;;13.20;99.60;;;;;;5006329;28;20464;-70
2023/04/15 11:05:38;;;;;;;2.03;1.93;;;13.20;99.90;;;;;;4987307;28;20457;-69
2023/04/15 11:08:04;;;;;;;2.17;1.70;;;13.20;99.50;;;;;;5006965;28;20499;-70
2023/04/15 11:10:30;;;;;;;1.70;1.60;;;13.30;99.70;;;;;;4991786;28;20460;-70
2023/04/15 11:13:03;;;;;;;1.63;1.53;;;13.50;99.30;;;;;;5003800;28;20950;-68
2023/04/15 11:15:39;;;;;;;3.20;2.00;;;13.60;98.90;;;;;;5008427;28;20707;-68
2023/04/15 11:18:40;;;;;;;3.63;1.73;;;13.50;98.00;;;;;;5006255;28;20539;-70
2023/04/15 11:21:07;;;;;;;1.83;1.73;;;13.60;98.40;;;;;;4925957;29;20466;-70
2023/04/15 11:23:34;;;;;;;1.87;1.77;;;13.70;98.00;;;;;;4988191;28;20846;-70
2023/04/15 11:26:02;;;;;;;1.97;1.50;;;13.70;97.60;;;;;;5001187;28;20801;-70
2023/04/15 11:28:29;;;;;;;1.33;1.30;;;13.60;97.80;;;;;;5008357;28;20468;-70
2023/04/15 11:30:56;;;;;;;2.00;1.37;;;13.50;97.70;;;;;;5007634;28;20437;-69
2023/04/15 11:33:23;;;;;;;1.60;1.50;;;13.60;98.00;;;;;;5010304;28;20460;-70
2023/04/15 11:35:49;;;;;;;1.63;1.53;;;13.60;98.10;;;;;;5003396;28;20845;-70
2023/04/15 11:38:15;;;;;;;3.43;1.90;;;13.60;98.00;;;;;;5009906;28;20560;-69
2023/04/15 11:40:42;;;;;;;1.17;1.17;;;13.70;98.60;;;;;;5010194;28;20224;-69
2023/04/15 11:43:19;;;;;;;1.40;1.30;;;13.70;98.50;;;;;;5011118;28;20460;-69
2023/04/15 11:45:58;;;;;;;1.60;1.50;;;13.80;98.00;;;;;;4993483;28;20456;-69
2023/04/15 11:48:27;;;;;;;4.43;1.83;;;13.90;98.20;;;;;;4992034;28;20452;-69
2023/04/15 11:51:05;;;;;;;3.80;2.40;;;14.00;98.40;;;;;;5009801;28;20445;-70
2023/04/15 11:53:42;;;;;;;7.70;2.43;;;13.80;97.90;;;;;;5006382;28;20518;-70
2023/04/15 11:56:17;;;;;;;2.70;1.70;;;13.60;97.70;;;;;;5007306;28;20471;-70
2023/04/15 11:58:45;;;;;;;3.17;1.67;;;13.60;96.80;;;;;;5009615;28;20467;-69
2023/04/15 12:01:13;;;;;;;1.60;1.50;;;13.60;97.00;;;;;;4998800;28;20540;-70
2023/04/15 12:03:45;;;;;;;1.33;1.23;;;13.80;95.90;;;;;;4994627;28;20485;-72
2023/04/15 12:06:19;;;;;;;4.23;1.90;;;13.90;96.80;;;;;;5002368;28;20456;-70
2023/04/15 12:09:05;;;;;;;1.40;1.20;;;13.80;96.40;;;;;;5001092;28;20478;-67
2023/04/15 12:11:54;;;;;;;1.60;1.50;;;13.80;96.70;;;;;;4999742;28;20468;-68
2023/04/15 12:14:25;;;;;;;2.47;1.00;;;13.70;97.20;;;;;;5004739;28;20475;-66
2023/04/15 12:17:00;;;;;;;1.17;1.07;;;13.70;97.30;;;;;;5008232;28;20473;-67
2023/04/15 12:19:28;;;;;;;1.20;1.10;;;13.70;97.30;;;;;;4991301;28;20989;-67
2023/04/15 12:22:14;;;;;;;2.00;1.03;;;13.90;97.80;;;;;;4980606;28;20469;-68
2023/04/15 12:24:46;;;;;;;0.73;0.73;;;13.90;96.90;;;;;;5001442;28;20508;-69
2023/04/15 12:27:13;;;;;;;1.17;1.07;;;13.90;96.90;;;;;;5007692;28;20460;-69
2023/04/15 12:29:41;;;;;;;1.77;1.37;;;14.00;97.10;;;;;;4995417;28;20480;-69
2023/04/15 12:32:08;;;;;;;1.67;0.70;;;13.90;97.00;;;;;;5000516;28;20469;-69
2023/04/15 12:34:35;;;;;;;0.70;0.70;;;13.90;97.00;;;;;;5003430;28;20473;-69
2023/04/15 12:37:02;;;;;;;12.13;0.90;;;13.90;97.90;;;;;;5004394;28;20464;-68
2023/04/15 12:39:31;;;;;;;0.80;0.67;;;13.80;97.70;;;;;;5008832;28;21013;-70
2023/04/15 12:41:58;;;;;;;0.80;0.60;;;13.80;97.80;;;;;;5004642;28;20979;-69
2023/04/15 12:44:26;;;;;;;0.70;0.63;;;13.80;98.20;;;;;;5001488;28;20457;-71
2023/04/15 12:46:52;;;;;;;0.67;0.67;;;13.80;97.90;;;;;;5007798;28;20548;-69
2023/04/15 12:49:19;;;;;;;1.00;0.90;;;13.80;98.20;;;;;;5010573;28;21064;-67
2023/04/15 12:51:47;;;;;;;1.07;0.77;;;13.80;98.20;;;;;;4992824;28;20651;-69
2023/04/15 12:54:13;;;;;;;0.67;0.67;;;13.80;98.50;;;;;;5010390;28;21031;-69